createdAt,value
2022-11-05T00:01:39.464Z,20.30
2022-11-05T00:04:31.059Z,19.80
2022-11-05T00:07:26.695Z,18.70
2022-11-05T00:10:03.658Z,16.80
2022-11-05T00:12:53.577Z,14.40
2022-11-05T00:15:44.478Z,12.50
2022-11-05T00:18:19.527Z,10.90
2022-11-05T00:20:52.286Z,11.00
2022-11-05T00:23:43.869Z,10.20
2022-11-05T00:26:16.597Z,9.70
2022-11-05T00:28:50.192Z,9.90
2022-11-05T00:31:24.941Z,8.90
2022-11-05T00:33:57.309Z,7.90
2022-11-05T00:36:30.484Z,6.60
2022-11-05T00:39:04.000Z,6.20
2022-11-05T00:41:37.488Z,6.00
2022-11-05T00:44:27.364Z,5.90
2022-11-05T00:47:14.177Z,6.50
2022-11-05T00:49:46.691Z,6.50
2022-11-05T00:52:37.155Z,6.90
2022-11-05T00:55:10.518Z,7.50
2022-11-05T00:57:42.912Z,7.60
2022-11-05T01:00:17.704Z,7.70
2022-11-05T01:02:50.458Z,7.20
2022-11-05T01:05:23.140Z,6.50
2022-11-05T01:07:58.003Z,6.80
2022-11-05T01:10:30.108Z,6.40
2022-11-05T01:13:07.597Z,6.90
2022-11-05T01:15:44.563Z,6.50
2022-11-05T01:18:17.159Z,6.80
2022-11-05T01:20:49.847Z,6.90
2022-11-05T01:23:23.009Z,7.00
2022-11-05T01:25:55.529Z,7.40
2022-11-05T01:28:31.963Z,7.50
2022-11-05T01:31:05.279Z,7.90
2022-11-05T01:33:37.635Z,8.20
2022-11-05T01:36:11.394Z,8.40
2022-11-05T01:38:43.828Z,8.30
2022-11-05T01:41:16.676Z,8.30
2022-11-05T01:43:54.569Z,8.60
2022-11-05T01:46:32.186Z,8.80
2022-11-05T01:49:12.596Z,8.90
2022-11-05T01:51:46.223Z,8.90
2022-11-05T01:54:21.782Z,8.90
2022-11-05T01:56:56.739Z,8.10
2022-11-05T01:59:31.218Z,8.50
2022-11-05T02:02:04.253Z,8.80
2022-11-05T02:04:40.322Z,8.60
2022-11-05T02:07:13.370Z,9.20
2022-11-05T02:09:51.997Z,9.90
2022-11-05T02:12:24.713Z,11.10
2022-11-05T02:14:59.524Z,11.60
2022-11-05T02:17:41.497Z,9.90
2022-11-05T02:20:36.600Z,10.00
2022-11-05T02:23:36.354Z,8.90
2022-11-05T02:26:31.105Z,9.60
2022-11-05T02:29:38.079Z,9.20
2022-11-05T02:32:16.150Z,9.80
2022-11-05T02:34:55.897Z,10.40
2022-11-05T02:37:39.242Z,10.40
2022-11-05T02:40:17.761Z,10.10
2022-11-05T02:43:00.338Z,9.80
2022-11-05T02:45:40.174Z,9.80
2022-11-05T02:48:19.965Z,9.10
2022-11-05T02:50:57.235Z,8.40
2022-11-05T02:53:35.381Z,8.90
2022-11-05T02:56:10.512Z,9.00
2022-11-05T02:58:43.054Z,9.40
2022-11-05T03:01:17.296Z,9.80
2022-11-05T03:03:54.452Z,9.80
2022-11-05T03:06:51.138Z,11.00
2022-11-05T03:09:41.893Z,11.10
2022-11-05T03:12:23.099Z,12.00
2022-11-05T03:15:02.580Z,12.20
2022-11-05T03:17:39.600Z,13.80
2022-11-05T03:20:17.322Z,12.50
2022-11-05T03:22:55.269Z,13.10
2022-11-05T03:25:29.423Z,12.70
2022-11-05T03:28:06.909Z,11.60
2022-11-05T03:30:40.727Z,12.30
2022-11-05T03:33:21.286Z,18.20
2022-11-05T03:35:55.734Z,13.40
2022-11-05T03:38:33.708Z,11.40
2022-11-05T03:41:11.921Z,11.50
2022-11-05T03:43:48.489Z,15.10
2022-11-05T03:46:26.479Z,11.20
2022-11-05T03:49:03.211Z,17.70
2022-11-05T03:51:45.292Z,13.70
2022-11-05T03:54:18.585Z,10.50
2022-11-05T03:57:02.558Z,10.00
2022-11-05T03:59:42.697Z,8.60
2022-11-05T04:02:19.910Z,7.30
2022-11-05T04:04:52.245Z,6.90
2022-11-05T04:07:42.664Z,6.60
2022-11-05T04:10:33.901Z,6.60
2022-11-05T04:13:29.170Z,6.60
2022-11-05T04:16:20.896Z,7.00
2022-11-05T04:18:53.973Z,7.30
2022-11-05T04:21:57.870Z,7.10
2022-11-05T04:24:30.628Z,7.70
2022-11-05T04:27:02.829Z,8.00
2022-11-05T04:30:02.725Z,8.70
2022-11-05T04:32:35.739Z,9.60
2022-11-05T04:35:08.903Z,10.50
2022-11-05T04:37:42.180Z,11.70
2022-11-05T04:40:14.890Z,11.90
2022-11-05T04:42:48.657Z,12.40
2022-11-05T04:45:22.143Z,12.50
2022-11-05T04:47:56.317Z,11.80
2022-11-05T04:50:29.332Z,12.30
2022-11-05T04:53:01.870Z,12.20
2022-11-05T04:55:34.415Z,11.90
2022-11-05T04:58:08.604Z,12.20
2022-11-05T05:00:41.370Z,13.00
2022-11-05T05:03:14.388Z,13.20
2022-11-05T05:05:46.939Z,13.30
2022-11-05T05:08:20.617Z,13.60
2022-11-05T05:10:54.170Z,14.10
2022-11-05T05:13:26.919Z,17.00
2022-11-05T05:16:01.270Z,18.30
2022-11-05T05:18:35.912Z,18.50
2022-11-05T05:21:28.025Z,19.20
2022-11-05T05:24:00.169Z,18.30
2022-11-05T05:26:39.812Z,17.60
2022-11-05T05:29:12.866Z,18.80
2022-11-05T05:31:46.679Z,17.80
2022-11-05T05:34:18.832Z,17.10
2022-11-05T05:36:51.958Z,20.70
2022-11-05T05:39:26.095Z,18.80
2022-11-05T05:41:59.454Z,18.90
2022-11-05T05:44:31.399Z,20.10
2022-11-05T05:47:07.717Z,23.10
2022-11-05T05:49:41.386Z,27.30
2022-11-05T05:52:14.539Z,24.10
2022-11-05T05:54:47.060Z,25.90
2022-11-05T05:57:19.960Z,27.30
2022-11-05T05:59:53.745Z,27.80
2022-11-05T06:02:27.050Z,26.60
2022-11-05T06:05:00.007Z,24.10
2022-11-05T06:07:37.305Z,23.30
2022-11-05T06:10:12.816Z,23.70
2022-11-05T06:12:47.717Z,24.10
2022-11-05T06:15:21.518Z,27.10
2022-11-05T06:17:56.639Z,27.50
2022-11-05T06:20:31.005Z,27.40
2022-11-05T06:23:03.731Z,27.70
2022-11-05T06:25:41.239Z,27.20
2022-11-05T06:28:14.341Z,26.40
2022-11-05T06:30:46.395Z,27.20
2022-11-05T06:33:19.839Z,29.30
2022-11-05T06:35:52.458Z,31.60
2022-11-05T06:38:25.449Z,30.30
2022-11-05T06:41:03.310Z,28.90
2022-11-05T06:43:44.117Z,30.30
2022-11-05T06:46:16.248Z,35.00
2022-11-05T06:48:48.920Z,34.20
2022-11-05T06:51:22.085Z,34.60
2022-11-05T06:53:57.399Z,27.00
2022-11-05T06:56:29.692Z,27.90
2022-11-05T06:59:06.793Z,29.90
2022-11-05T07:01:40.981Z,26.90
2022-11-05T07:04:15.845Z,28.30
2022-11-05T07:06:47.998Z,28.00
2022-11-05T07:09:22.109Z,25.40
2022-11-05T07:11:54.719Z,25.60
2022-11-05T07:14:28.865Z,25.10
2022-11-05T07:17:02.179Z,24.90
2022-11-05T07:19:35.290Z,27.90
2022-11-05T07:22:11.912Z,26.20
2022-11-05T07:24:47.267Z,28.00
2022-11-05T07:27:20.492Z,27.30
2022-11-05T07:29:54.377Z,27.20
2022-11-05T07:32:28.738Z,24.60
2022-11-05T07:35:03.091Z,24.40
2022-11-05T07:37:45.673Z,26.50
2022-11-05T07:40:23.063Z,28.10
2022-11-05T07:42:57.035Z,25.30
2022-11-05T07:45:30.881Z,26.10
2022-11-05T07:48:07.788Z,26.10
2022-11-05T07:50:42.479Z,24.60
2022-11-05T07:53:17.062Z,24.10
2022-11-05T07:56:14.068Z,26.50
2022-11-05T07:58:50.328Z,25.70
2022-11-05T08:01:46.806Z,25.50
2022-11-05T08:04:50.681Z,27.30
2022-11-05T08:07:27.149Z,27.10
2022-11-05T08:10:05.145Z,29.80
2022-11-05T08:13:25.832Z,28.40
2022-11-05T08:16:02.667Z,27.20
2022-11-05T08:18:37.021Z,29.00
2022-11-05T08:21:10.076Z,27.60
2022-11-05T08:23:46.005Z,24.40
2022-11-05T08:26:20.904Z,23.90
2022-11-05T08:28:55.097Z,24.20
2022-11-05T09:25:15.358Z,26.40
2022-11-05T09:28:28.441Z,26.70
2022-11-05T09:31:00.783Z,31.30
2022-11-05T09:33:32.965Z,28.00
2022-11-05T09:36:05.407Z,22.00
2022-11-05T09:38:38.293Z,24.20
2022-11-05T09:41:14.689Z,22.40
2022-11-05T09:43:49.562Z,21.30
2022-11-05T09:46:23.835Z,22.70
2022-11-05T09:48:58.336Z,23.60
2022-11-05T09:51:30.286Z,21.50
2022-11-05T09:54:03.321Z,20.60
2022-11-05T09:56:37.433Z,19.30
2022-11-05T09:59:17.330Z,18.00
2022-11-05T10:01:49.413Z,21.90
2022-11-05T10:04:31.187Z,19.30
2022-11-05T10:07:06.729Z,17.50
2022-11-05T10:09:43.123Z,16.90
2022-11-05T10:12:22.575Z,18.20
2022-11-05T10:15:04.005Z,19.10
2022-11-05T10:17:39.295Z,19.60
2022-11-05T10:20:20.368Z,16.90
2022-11-05T10:22:59.915Z,19.00
2022-11-05T10:25:39.607Z,16.90
2022-11-05T10:28:16.025Z,18.60
2022-11-05T10:30:50.135Z,18.40
2022-11-05T10:33:29.405Z,21.60
2022-11-05T10:36:07.352Z,16.50
2022-11-05T10:38:42.634Z,19.20
2022-11-05T10:41:32.887Z,21.00
2022-11-05T10:44:14.754Z,18.80
2022-11-05T10:46:59.704Z,19.10
2022-11-05T10:49:44.026Z,20.60
2022-11-05T10:52:24.054Z,19.60
2022-11-05T10:55:02.293Z,18.10
2022-11-05T10:57:38.047Z,17.90
2022-11-05T11:00:32.052Z,23.10
2022-11-05T11:03:05.789Z,18.90
2022-11-05T11:05:41.060Z,19.90
2022-11-05T11:08:25.428Z,23.60
2022-11-05T11:10:59.933Z,20.20
2022-11-05T11:13:52.419Z,24.20
2022-11-05T11:16:26.040Z,22.90
2022-11-05T11:19:01.201Z,22.50
2022-11-05T11:21:38.991Z,19.20
2022-11-05T11:24:23.897Z,21.40
2022-11-05T11:26:55.975Z,17.20
2022-11-05T11:29:29.911Z,18.40
2022-11-05T11:32:03.615Z,17.10
2022-11-05T11:34:37.139Z,19.90
2022-11-05T11:37:16.700Z,21.80
2022-11-05T11:39:54.430Z,19.70
2022-11-05T11:42:32.278Z,21.40
2022-11-05T11:45:09.162Z,18.30
2022-11-05T11:47:46.018Z,17.80
2022-11-05T11:50:40.139Z,23.90
2022-11-05T11:53:32.086Z,19.00
2022-11-05T11:56:19.387Z,34.10
2022-11-05T11:58:55.352Z,23.10
2022-11-05T12:01:51.952Z,25.90
2022-11-05T12:04:38.263Z,27.30
2022-11-05T12:07:22.721Z,35.50
2022-11-05T12:10:18.341Z,35.50
2022-11-05T12:13:00.255Z,30.00
2022-11-05T12:15:44.369Z,22.20
2022-11-05T12:18:27.295Z,20.60
2022-11-05T12:21:34.630Z,18.00
2022-11-05T12:24:31.905Z,17.30
2022-11-05T12:27:17.738Z,16.40
2022-11-05T12:29:57.025Z,18.80
2022-11-05T12:32:42.600Z,22.40
2022-11-05T12:35:28.478Z,23.80
2022-11-05T12:38:05.866Z,26.80
2022-11-05T12:40:48.332Z,26.40
2022-11-05T12:43:33.343Z,24.50
2022-11-05T12:46:15.674Z,23.00
2022-11-05T12:49:25.082Z,17.40
2022-11-05T12:52:11.975Z,22.90
2022-11-05T12:54:54.770Z,19.50
2022-11-05T12:57:30.361Z,23.80
2022-11-05T13:00:14.078Z,19.60
2022-11-05T13:02:55.904Z,17.40
2022-11-05T13:05:35.036Z,17.90
2022-11-05T13:08:09.300Z,20.20
2022-11-05T13:10:44.231Z,13.70
2022-11-05T13:13:25.189Z,12.90
2022-11-05T13:16:00.586Z,13.70
2022-11-05T13:18:40.161Z,16.70
2022-11-05T13:21:15.107Z,18.70
2022-11-05T13:23:53.310Z,19.00
2022-11-05T13:26:28.600Z,19.70
2022-11-05T13:29:05.722Z,18.30
2022-11-05T13:31:40.070Z,16.50
2022-11-05T13:34:14.393Z,15.40
2022-11-05T13:37:17.580Z,14.20
2022-11-05T13:39:56.870Z,15.20
2022-11-05T13:42:56.463Z,17.60
2022-11-05T13:45:46.475Z,16.60
2022-11-05T13:48:37.957Z,12.00
2022-11-05T13:51:37.694Z,13.20
2022-11-05T13:54:47.060Z,11.30
2022-11-05T13:57:32.362Z,12.30
2022-11-05T14:00:13.173Z,10.10
2022-11-05T14:02:49.741Z,15.70
2022-11-05T14:05:28.243Z,13.10
2022-11-05T14:08:03.089Z,9.50
2022-11-05T14:10:42.713Z,8.50
2022-11-05T14:13:24.400Z,8.90
2022-11-05T14:16:07.064Z,8.70
2022-11-05T14:18:46.978Z,8.60
2022-11-05T14:21:51.800Z,8.10
2022-11-05T14:24:43.404Z,9.90
2022-11-05T14:27:45.556Z,8.40
2022-11-05T14:30:46.790Z,11.10
2022-11-05T14:33:36.325Z,15.40
2022-11-05T14:36:33.768Z,14.90
2022-11-05T14:39:21.883Z,14.10
2022-11-05T14:42:05.396Z,13.50
2022-11-05T14:44:57.389Z,14.10
2022-11-05T14:47:34.486Z,13.30
2022-11-05T14:50:13.264Z,20.50
2022-11-05T14:52:54.325Z,14.60
2022-11-05T14:55:33.295Z,23.60
2022-11-05T14:58:35.614Z,15.40
2022-11-05T15:01:09.643Z,22.50
2022-11-05T15:04:08.410Z,14.50
2022-11-05T15:06:42.117Z,17.50
2022-11-05T15:09:25.113Z,18.60
2022-11-05T15:12:18.528Z,18.80
2022-11-05T15:14:58.568Z,16.90
2022-11-05T15:17:34.374Z,18.60
2022-11-05T15:20:15.964Z,20.40
2022-11-05T15:22:50.998Z,25.20
2022-11-05T15:25:27.207Z,22.20
2022-11-05T15:28:08.304Z,23.20
2022-11-05T15:30:54.838Z,27.60
2022-11-05T15:33:28.827Z,35.30
2022-11-05T15:36:25.655Z,29.90
2022-11-05T15:39:28.930Z,55.90
2022-11-05T15:41:54.559Z,48.90
2022-11-05T15:44:33.093Z,63.70
2022-11-05T15:47:20.364Z,46.10
2022-11-05T15:49:55.633Z,74.80
2022-11-05T15:52:42.462Z,40.20
2022-11-05T15:55:23.860Z,65.20
2022-11-05T15:58:01.641Z,45.00
2022-11-05T16:00:37.949Z,35.20
2022-11-05T16:03:21.075Z,17.30
2022-11-05T16:05:54.760Z,34.20
2022-11-05T16:08:28.605Z,31.30
2022-11-05T16:11:04.111Z,23.50
2022-11-05T16:13:38.443Z,23.80
2022-11-05T16:16:32.636Z,39.50
2022-11-05T16:19:25.977Z,22.80
2022-11-05T16:21:58.724Z,34.10
2022-11-05T16:24:32.025Z,24.00
2022-11-05T16:27:05.495Z,22.10
2022-11-05T16:29:42.385Z,25.80
2022-11-05T16:32:23.053Z,25.80
2022-11-05T16:35:01.169Z,21.80
2022-11-05T16:37:39.928Z,23.10
2022-11-05T16:40:19.288Z,20.80
2022-11-05T16:42:53.218Z,27.70
2022-11-05T16:45:27.032Z,26.40
2022-11-05T16:47:59.210Z,32.10
2022-11-05T16:50:36.357Z,30.10
2022-11-05T16:53:09.699Z,29.40
2022-11-05T16:55:44.948Z,28.50
2022-11-05T16:58:22.208Z,31.40
2022-11-05T17:01:05.582Z,32.00
2022-11-05T17:03:39.836Z,25.00
2022-11-05T17:06:13.613Z,26.40
2022-11-05T17:08:45.856Z,27.40
2022-11-05T17:11:21.425Z,23.90
2022-11-05T17:13:54.907Z,24.00
2022-11-05T17:16:30.981Z,26.20
2022-11-05T17:19:05.642Z,23.50
2022-11-05T17:21:38.451Z,23.10
2022-11-05T17:24:11.964Z,26.20
2022-11-05T17:26:44.230Z,26.60
2022-11-05T17:29:18.224Z,28.10
2022-11-05T17:31:51.741Z,27.80
2022-11-05T17:34:25.433Z,32.40
2022-11-05T17:36:58.230Z,28.90
2022-11-05T17:39:34.703Z,29.20
2022-11-05T17:42:08.053Z,22.80
2022-11-05T17:44:41.324Z,19.50
2022-11-05T17:47:16.423Z,20.20
2022-11-05T17:49:49.681Z,18.00
2022-11-05T17:52:26.091Z,21.00
2022-11-05T17:55:01.626Z,19.00
2022-11-05T17:57:34.413Z,20.30
2022-11-05T18:00:09.372Z,21.10
2022-11-05T18:02:44.396Z,20.90
2022-11-05T18:05:20.336Z,22.90
2022-11-05T18:07:54.297Z,23.20
2022-11-05T18:10:28.713Z,23.00
2022-11-05T18:13:02.628Z,27.90
2022-11-05T18:15:36.517Z,34.80
2022-11-05T18:18:09.294Z,39.70
2022-11-05T18:20:47.681Z,39.20
2022-11-05T18:23:22.457Z,40.90
2022-11-05T18:25:56.637Z,42.90
2022-11-05T18:28:32.311Z,47.20
2022-11-05T18:31:12.715Z,36.60
2022-11-05T18:33:49.340Z,29.20
2022-11-05T18:36:24.687Z,28.70
2022-11-05T18:38:57.857Z,33.10
2022-11-05T18:41:30.254Z,22.80
2022-11-05T18:44:03.993Z,29.70
2022-11-05T18:46:57.068Z,30.00
2022-11-05T18:49:33.269Z,21.50
2022-11-05T18:52:07.959Z,20.30
2022-11-05T18:54:42.539Z,22.70
2022-11-05T18:57:15.070Z,21.10
2022-11-05T18:59:51.396Z,20.50
2022-11-05T19:02:24.521Z,21.50
2022-11-05T19:05:27.442Z,24.00
2022-11-05T19:07:55.000Z,20.00
2022-11-05T19:10:27.093Z,20.20
2022-11-05T19:12:59.224Z,19.00
2022-11-05T19:15:35.931Z,19.80
2022-11-05T19:18:09.708Z,21.70
2022-11-05T19:20:42.277Z,22.20
2022-11-05T19:23:16.137Z,29.60
2022-11-05T19:25:48.076Z,25.90
2022-11-05T19:28:21.941Z,26.80
2022-11-05T19:30:54.876Z,28.00
2022-11-05T19:33:26.830Z,27.40
2022-11-05T19:35:59.958Z,32.20
2022-11-05T19:38:35.605Z,31.30
2022-11-05T19:41:13.959Z,28.90
2022-11-05T19:43:48.278Z,33.60
2022-11-05T19:46:22.443Z,32.60
2022-11-05T19:48:57.797Z,33.60
2022-11-05T19:51:31.448Z,34.90
2022-11-05T19:54:05.054Z,34.70
2022-11-05T19:56:38.592Z,38.00
2022-11-05T19:59:14.982Z,34.90
2022-11-05T20:01:47.224Z,35.70
2022-11-05T20:04:23.252Z,36.80
2022-11-05T20:06:56.941Z,38.30
2022-11-05T20:09:29.717Z,35.40
2022-11-05T20:12:05.835Z,38.00
2022-11-05T20:14:39.994Z,35.50
2022-11-05T20:17:12.046Z,34.40
2022-11-05T20:19:47.085Z,35.10
2022-11-05T20:22:21.134Z,34.50
2022-11-05T20:24:58.142Z,38.50
2022-11-05T20:27:38.260Z,39.30
2022-11-05T20:30:14.315Z,40.00
2022-11-05T20:32:49.731Z,37.30
2022-11-05T20:35:21.803Z,35.60
2022-11-05T20:37:55.982Z,34.60
2022-11-05T20:40:28.016Z,37.60
2022-11-05T20:42:59.946Z,43.30
2022-11-05T20:45:33.459Z,40.00
2022-11-05T20:48:11.726Z,40.30
2022-11-05T20:50:47.196Z,37.10
2022-11-05T20:53:21.618Z,36.20
2022-11-05T20:55:55.385Z,34.10
2022-11-05T20:58:31.732Z,33.00
2022-11-05T21:01:05.097Z,31.80
2022-11-05T21:03:38.204Z,34.50
2022-11-05T21:06:12.257Z,37.50
2022-11-05T21:08:47.446Z,41.10
2022-11-05T21:11:24.101Z,41.10
2022-11-05T21:14:00.917Z,40.40
2022-11-05T21:16:33.353Z,41.40
2022-11-05T21:19:07.599Z,40.70
2022-11-05T21:21:41.897Z,39.20
2022-11-05T21:24:15.553Z,41.00
2022-11-05T21:26:50.598Z,39.20
2022-11-05T21:29:24.952Z,40.40
2022-11-05T21:31:57.560Z,40.90
2022-11-05T21:34:30.395Z,42.30
2022-11-05T21:37:09.681Z,40.20
2022-11-05T21:39:44.724Z,41.30
2022-11-05T21:42:18.468Z,41.30
2022-11-05T21:44:57.805Z,39.10
2022-11-05T21:47:35.929Z,43.70
2022-11-05T21:50:10.730Z,40.10
2022-11-05T21:53:02.398Z,39.10
2022-11-05T21:55:53.133Z,39.10
2022-11-05T21:58:45.642Z,42.10
2022-11-05T22:01:19.730Z,36.20
2022-11-05T22:03:53.111Z,38.00
2022-11-05T22:06:29.401Z,32.90
2022-11-05T22:09:04.048Z,36.00
2022-11-05T22:11:39.587Z,38.80
2022-11-05T22:14:16.389Z,38.60
2022-11-05T22:16:48.940Z,35.90
2022-11-05T22:19:21.857Z,36.20
2022-11-05T22:21:56.885Z,33.90
2022-11-05T22:24:31.794Z,37.90
2022-11-05T22:27:10.338Z,34.70
2022-11-05T22:29:46.192Z,35.80
2022-11-05T22:32:22.239Z,34.80
2022-11-05T22:34:54.952Z,37.70
2022-11-05T22:37:27.869Z,36.10
2022-11-05T22:39:59.748Z,37.10
2022-11-05T22:42:34.850Z,35.70
2022-11-05T22:45:10.488Z,35.10
2022-11-05T22:47:45.256Z,36.60
2022-11-05T22:50:17.160Z,37.10
2022-11-05T22:52:51.821Z,35.40
2022-11-05T22:55:25.762Z,35.10
2022-11-05T22:57:58.458Z,36.70
2022-11-05T23:00:37.482Z,35.20
2022-11-05T23:03:11.488Z,37.00
2022-11-05T23:05:44.081Z,41.20
2022-11-05T23:08:35.469Z,43.30
2022-11-05T23:11:30.896Z,37.50
2022-11-05T23:14:03.595Z,34.10
2022-11-05T23:16:57.890Z,35.00
2022-11-05T23:19:48.071Z,35.50
2022-11-05T23:22:44.617Z,37.60
2022-11-05T23:25:18.721Z,39.50
2022-11-05T23:27:52.937Z,38.40
2022-11-05T23:30:27.114Z,37.10
2022-11-05T23:32:59.796Z,37.00
2022-11-05T23:35:55.570Z,40.10
2022-11-05T23:38:37.982Z,41.00
2022-11-05T23:41:28.842Z,40.00
2022-11-05T23:44:19.769Z,39.70
2022-11-05T23:47:10.599Z,38.90
2022-11-05T23:49:44.659Z,38.60
2022-11-05T23:52:17.425Z,38.00
2022-11-05T23:54:49.748Z,38.30
2022-11-05T23:57:22.093Z,36.30
2022-11-05T23:59:55.525Z,36.10
